Matanzas, Cuba
Current Conditions -  °F | °C
As of 8:51 AM on Tuesday 21 Oct 2014 (Local Time) from MUVR Reporting Station
Broken Clouds Broken Clouds  
Wind Chill: 75°   Ceiling: 7000
Heat Index: 75°   Visibility: 6mi
Dew Point: 70°   Wind: 3mph
Humidity: 83%   Direction: 130°SE
Pressure: 29.97"   Gusts: NA
Location:  23.06°N, 81.58°W
Report Text: MUVR 211251Z 13003KT 110V170 9000 FEW020 BKN070 24/21 Q1015
Loading
Personal Weather Stations






























Interactive Weather Map
Tropical Storm Tracking
New forecast layout! Learn more

10-Day Weather Forecast

Advertisements
Track Severe Weather on mobile